createdAt,value
2022-10-17T00:00:17.188Z,47.44
2022-10-17T00:01:17.215Z,44.64
2022-10-17T00:02:17.188Z,49.19
2022-10-17T00:03:17.147Z,49.98
2022-10-17T00:04:17.151Z,43.53
2022-10-17T00:05:17.138Z,43.21
2022-10-17T00:06:17.144Z,48.67
2022-10-17T00:07:17.111Z,56.30
2022-10-17T00:08:17.125Z,45.09
2022-10-17T00:09:17.099Z,52.45
2022-10-17T00:10:17.080Z,52.40
2022-10-17T00:11:17.071Z,56.90
2022-10-17T00:12:17.060Z,46.02
2022-10-17T00:13:17.067Z,48.77
2022-10-17T00:14:17.036Z,43.21
2022-10-17T00:15:17.030Z,43.64
2022-10-17T00:16:18.015Z,60.07
2022-10-17T00:17:17.015Z,43.81
2022-10-17T00:18:17.019Z,42.37
2022-10-17T00:19:16.998Z,42.26
2022-10-17T00:20:17.011Z,49.76
2022-10-17T00:21:16.984Z,48.71
2022-10-17T00:22:16.958Z,48.36
2022-10-17T00:23:16.958Z,41.23
2022-10-17T00:24:16.941Z,41.71
2022-10-17T00:25:16.951Z,47.68
2022-10-17T00:26:16.907Z,49.40
2022-10-17T00:27:16.912Z,42.44
2022-10-17T00:28:16.928Z,41.63
2022-10-17T00:29:16.889Z,45.63
2022-10-17T00:30:16.884Z,52.22
2022-10-17T00:31:16.864Z,41.69
2022-10-17T00:32:16.847Z,42.64
2022-10-17T00:33:16.865Z,43.55
2022-10-17T00:34:16.846Z,64.12
2022-10-17T00:35:16.818Z,49.14
2022-10-17T00:36:16.813Z,46.02
2022-10-17T00:37:16.805Z,56.78
2022-10-17T00:38:16.799Z,45.33
2022-10-17T00:39:16.812Z,41.94
2022-10-17T00:40:16.773Z,43.54
2022-10-17T00:41:16.762Z,45.55
2022-10-17T00:42:16.746Z,49.52
2022-10-17T00:43:16.766Z,67.24
2022-10-17T00:44:16.744Z,54.13
2022-10-17T00:45:16.720Z,45.56
2022-10-17T00:46:16.707Z,47.66
2022-10-17T00:47:16.708Z,51.73
2022-10-17T00:48:21.182Z,48.70
2022-10-17T00:49:17.691Z,50.36
2022-10-17T00:50:16.666Z,51.29
2022-10-17T00:51:16.667Z,47.34
2022-10-17T00:52:16.645Z,47.28
2022-10-17T00:53:16.646Z,46.81
2022-10-17T00:54:16.651Z,48.89
2022-10-17T00:55:16.611Z,42.63
2022-10-17T00:56:16.606Z,50.53
2022-10-17T00:57:17.600Z,46.51
2022-10-17T00:58:16.590Z,41.40
2022-10-17T00:59:16.610Z,46.63
2022-10-17T01:00:16.625Z,47.40
2022-10-17T01:01:16.621Z,41.90
2022-10-17T01:02:16.551Z,43.86
2022-10-17T01:03:16.537Z,50.41
2022-10-17T01:04:16.557Z,50.95
2022-10-17T01:05:16.521Z,43.60
2022-10-17T01:06:16.516Z,49.15
2022-10-17T01:07:16.518Z,48.70
2022-10-17T01:08:16.487Z,47.53
2022-10-17T01:09:16.505Z,59.19
2022-10-17T01:10:16.513Z,45.74
2022-10-17T01:11:16.446Z,50.28
2022-10-17T01:12:16.474Z,49.13
2022-10-17T01:13:16.430Z,45.89
2022-10-17T01:14:16.428Z,49.75
2022-10-17T01:15:16.417Z,55.07
2022-10-17T01:16:16.408Z,52.94
2022-10-17T01:17:16.419Z,50.55
2022-10-17T01:18:16.378Z,50.56
2022-10-17T01:19:16.400Z,50.90
2022-10-17T01:20:16.357Z,50.48
2022-10-17T01:21:16.351Z,46.13
2022-10-17T01:22:16.344Z,47.60
2022-10-17T01:23:16.356Z,47.11
2022-10-17T01:24:16.330Z,47.95
2022-10-17T01:25:16.308Z,48.23
2022-10-17T01:26:16.308Z,45.44
2022-10-17T01:27:16.287Z,60.93
2022-10-17T01:28:16.311Z,53.80
2022-10-17T01:29:16.292Z,52.42
2022-10-17T01:30:16.281Z,54.22
2022-10-17T01:31:16.253Z,46.34
2022-10-17T01:32:16.242Z,46.08
2022-10-17T01:33:16.248Z,49.45
2022-10-17T01:34:16.216Z,59.70
2022-10-17T01:35:16.216Z,60.29
2022-10-17T01:36:16.202Z,53.56
2022-10-17T01:37:16.220Z,62.94
2022-10-17T01:38:16.184Z,52.56
2022-10-17T01:39:16.165Z,52.97
2022-10-17T01:40:16.159Z,59.34
2022-10-17T01:41:16.148Z,48.35
2022-10-17T01:42:16.158Z,50.39
2022-10-17T01:43:16.128Z,48.24
2022-10-17T01:44:16.118Z,60.24
2022-10-17T01:45:16.108Z,48.53
2022-10-17T01:46:16.098Z,45.40
2022-10-17T01:47:16.094Z,60.09
2022-10-17T01:48:16.101Z,51.67
2022-10-17T01:49:16.067Z,50.67
2022-10-17T01:50:16.069Z,50.27
2022-10-17T01:51:16.053Z,46.30
2022-10-17T01:52:16.027Z,55.52
2022-10-17T01:53:16.048Z,50.76
2022-10-17T01:54:16.007Z,49.56
2022-10-17T01:55:16.022Z,51.24
2022-10-17T01:56:15.993Z,46.40
2022-10-17T01:57:15.979Z,47.77
2022-10-17T01:58:15.972Z,52.25
2022-10-17T01:59:15.954Z,51.35
2022-10-17T02:00:15.968Z,48.42
2022-10-17T02:01:15.977Z,50.23
2022-10-17T02:02:15.932Z,47.46
2022-10-17T02:03:15.924Z,49.74
2022-10-17T02:04:15.910Z,50.37
2022-10-17T02:05:15.915Z,45.52
2022-10-17T02:06:15.900Z,44.26
2022-10-17T02:07:15.878Z,46.78
2022-10-17T02:08:15.898Z,53.75
2022-10-17T02:09:15.865Z,48.86
2022-10-17T02:10:15.877Z,55.83
2022-10-17T02:11:15.846Z,50.44
2022-10-17T02:12:15.855Z,47.73
2022-10-17T02:13:15.818Z,54.08
2022-10-17T02:14:15.836Z,50.01
2022-10-17T02:15:15.802Z,48.76
2022-10-17T02:16:15.785Z,49.22
2022-10-17T02:17:15.802Z,47.97
2022-10-17T02:18:15.784Z,59.81
2022-10-17T02:19:15.757Z,49.70
2022-10-17T02:20:15.747Z,49.24
2022-10-17T02:21:15.738Z,53.24
2022-10-17T02:22:15.738Z,62.86
2022-10-17T02:23:15.772Z,50.02
2022-10-17T02:24:15.711Z,50.57
2022-10-17T02:25:15.710Z,61.55
2022-10-17T02:26:15.692Z,52.39
2022-10-17T02:27:15.678Z,47.26
2022-10-17T02:28:15.691Z,48.06
2022-10-17T02:29:15.666Z,49.41
2022-10-17T02:30:15.647Z,49.38
2022-10-17T02:31:15.648Z,51.35
2022-10-17T02:32:15.638Z,50.05
2022-10-17T02:33:15.651Z,50.64
2022-10-17T02:34:15.608Z,52.11
2022-10-17T02:35:15.604Z,56.35
2022-10-17T02:36:15.596Z,53.11
2022-10-17T02:37:15.592Z,53.95
2022-10-17T02:38:15.577Z,53.91
2022-10-17T02:39:16.590Z,57.88
2022-10-17T02:40:15.568Z,59.28
2022-10-17T02:41:16.626Z,52.10
2022-10-17T02:42:20.274Z,52.58
2022-10-17T02:43:47.425Z,51.89
2022-10-17T02:44:15.504Z,58.13
2022-10-17T02:45:16.518Z,56.75
2022-10-17T02:46:15.495Z,52.22
2022-10-17T02:47:15.485Z,52.69
2022-10-17T02:48:15.473Z,62.06
2022-10-17T02:49:15.460Z,53.50
2022-10-17T02:50:15.475Z,53.84
2022-10-17T02:51:15.472Z,56.54
2022-10-17T02:52:15.433Z,53.42
2022-10-17T02:53:15.416Z,50.24
2022-10-17T02:54:15.421Z,52.95
2022-10-17T02:55:15.425Z,52.37
2022-10-17T02:56:15.394Z,54.65
2022-10-17T02:57:15.381Z,51.89
2022-10-17T02:58:15.367Z,57.15
2022-10-17T02:59:15.360Z,55.25
2022-10-17T03:00:15.366Z,55.89
2022-10-17T03:01:15.404Z,56.98
2022-10-17T03:02:15.337Z,54.42
2022-10-17T03:03:15.320Z,63.09
2022-10-17T03:04:15.312Z,55.59
2022-10-17T03:05:15.304Z,55.39
2022-10-17T03:06:15.315Z,56.99
2022-10-17T03:07:15.277Z,55.60
2022-10-17T03:08:15.275Z,54.36
2022-10-17T03:09:15.286Z,55.86
2022-10-17T03:10:15.283Z,54.76
2022-10-17T03:11:15.228Z,59.28
2022-10-17T03:12:16.234Z,59.22
2022-10-17T03:13:15.216Z,58.12
2022-10-17T03:14:15.247Z,53.14
2022-10-17T03:15:15.223Z,56.28
2022-10-17T03:16:15.193Z,55.35
2022-10-17T03:17:15.183Z,55.78
2022-10-17T03:18:15.178Z,63.88
2022-10-17T03:19:15.162Z,54.54
2022-10-17T03:20:15.172Z,55.59
2022-10-17T03:21:15.143Z,57.75
2022-10-17T03:22:15.148Z,54.84
2022-10-17T03:23:15.124Z,57.37
2022-10-17T03:24:15.121Z,55.68
2022-10-17T03:25:15.105Z,57.42
2022-10-17T03:26:15.096Z,57.86
2022-10-17T03:27:15.112Z,56.62
2022-10-17T03:28:15.080Z,56.00
2022-10-17T03:29:15.093Z,56.32
2022-10-17T03:30:15.060Z,56.38
2022-10-17T03:31:15.048Z,58.30
2022-10-17T03:32:15.099Z,54.76
2022-10-17T03:33:15.023Z,56.03
2022-10-17T03:34:15.016Z,57.03
2022-10-17T03:35:15.265Z,58.74
2022-10-17T03:36:15.012Z,59.29
2022-10-17T03:37:15.002Z,57.79
2022-10-17T03:38:14.982Z,58.06
2022-10-17T03:39:14.957Z,57.26
2022-10-17T03:40:14.979Z,58.13
2022-10-17T03:41:14.951Z,57.99
2022-10-17T03:42:14.955Z,58.64
2022-10-17T03:43:14.944Z,57.50
2022-10-17T03:44:14.917Z,55.67
2022-10-17T03:45:14.909Z,58.68
2022-10-17T03:46:14.957Z,66.07
2022-10-17T03:47:14.893Z,56.81
2022-10-17T03:48:14.891Z,58.12
2022-10-17T03:49:14.882Z,55.80
2022-10-17T03:50:14.897Z,64.69
2022-10-17T03:51:14.859Z,57.52
2022-10-17T03:52:14.851Z,57.27
2022-10-17T03:53:14.843Z,56.01
2022-10-17T03:54:14.854Z,57.12
2022-10-17T03:55:14.837Z,55.25
2022-10-17T03:56:14.828Z,57.80
2022-10-17T03:57:14.802Z,56.44
2022-10-17T03:58:14.784Z,55.26
2022-10-17T03:59:14.771Z,58.05
2022-10-17T04:00:14.802Z,54.61
2022-10-17T04:01:14.803Z,56.08
2022-10-17T04:02:14.740Z,56.11
2022-10-17T04:03:17.171Z,54.77
2022-10-17T04:04:15.757Z,54.38
2022-10-17T04:05:14.720Z,56.39
2022-10-17T04:06:14.710Z,56.22
2022-10-17T04:07:14.751Z,55.99
2022-10-17T04:08:14.696Z,56.64
2022-10-17T04:09:14.715Z,57.31
2022-10-17T04:10:14.665Z,66.34
2022-10-17T04:11:14.657Z,58.34
2022-10-17T04:12:14.654Z,57.56
2022-10-17T04:13:14.640Z,58.17
2022-10-17T04:14:14.640Z,58.31
2022-10-17T04:15:14.618Z,58.63
2022-10-17T04:16:14.608Z,60.28
2022-10-17T04:17:14.593Z,59.67
2022-10-17T04:18:14.588Z,60.93
2022-10-17T04:19:14.610Z,61.14
2022-10-17T04:20:14.569Z,58.88
2022-10-17T04:21:14.559Z,65.99
2022-10-17T04:22:14.557Z,59.55
2022-10-17T04:23:14.540Z,58.01
2022-10-17T04:24:14.553Z,58.79
2022-10-17T04:25:14.515Z,59.32
2022-10-17T04:26:14.508Z,63.79
2022-10-17T04:27:14.502Z,66.89
2022-10-17T04:28:14.481Z,59.84
2022-10-17T04:29:14.486Z,59.47
2022-10-17T04:30:14.488Z,59.00
2022-10-17T04:31:14.474Z,55.78
2022-10-17T04:32:14.449Z,59.82
2022-10-17T04:33:14.445Z,58.06
2022-10-17T04:34:14.427Z,59.01
2022-10-17T04:35:14.431Z,59.36
2022-10-17T04:36:14.521Z,58.55
2022-10-17T04:37:14.392Z,58.17
2022-10-17T04:38:14.441Z,63.83
2022-10-17T04:40:14.691Z,57.54
2022-10-17T04:41:14.367Z,57.66
2022-10-17T04:42:14.349Z,62.13
2022-10-17T04:43:14.360Z,69.05
2022-10-17T04:44:14.356Z,58.47
2022-10-17T04:45:14.319Z,57.42
2022-10-17T04:46:14.313Z,60.55
2022-10-17T04:47:14.307Z,57.05
2022-10-17T04:48:14.280Z,58.95
2022-10-17T04:49:14.298Z,58.83
2022-10-17T04:50:14.272Z,58.67
2022-10-17T04:51:14.271Z,57.97
2022-10-17T04:52:14.289Z,56.92
2022-10-17T04:53:14.250Z,57.10
2022-10-17T04:54:14.241Z,58.01
2022-10-17T04:55:14.223Z,59.25
2022-10-17T04:56:14.263Z,59.93
2022-10-17T04:57:14.225Z,58.72
2022-10-17T04:58:14.179Z,59.40
2022-10-17T04:59:14.189Z,57.78
2022-10-17T05:00:14.187Z,57.28
2022-10-17T05:01:14.267Z,63.63
2022-10-17T05:02:14.151Z,60.28
2022-10-17T05:03:14.175Z,59.33
2022-10-17T05:04:14.139Z,59.88
2022-10-17T05:05:14.156Z,59.32
2022-10-17T05:06:14.114Z,59.04
2022-10-17T05:07:14.094Z,59.19
2022-10-17T05:08:14.094Z,57.96
2022-10-17T05:09:14.089Z,59.69
2022-10-17T05:10:14.098Z,58.33
2022-10-17T05:11:14.085Z,58.57
2022-10-17T05:12:14.072Z,56.68
2022-10-17T05:13:14.134Z,58.29
2022-10-17T05:14:15.022Z,60.99
2022-10-17T05:15:14.019Z,59.03
2022-10-17T05:16:14.049Z,60.24
2022-10-17T05:17:14.021Z,60.26
2022-10-17T05:18:13.990Z,59.85
2022-10-17T05:19:14.623Z,60.03
2022-10-17T05:20:13.981Z,60.15
2022-10-17T05:21:13.956Z,60.00
2022-10-17T05:22:13.979Z,59.43
2022-10-17T05:23:13.957Z,60.11
2022-10-17T05:24:13.934Z,61.64
2022-10-17T05:25:13.919Z,61.40
2022-10-17T05:26:13.909Z,60.51
2022-10-17T05:27:13.902Z,61.90
2022-10-17T05:28:13.927Z,60.46
2022-10-17T05:29:13.884Z,60.10
2022-10-17T05:30:13.869Z,61.18
2022-10-17T05:31:13.869Z,61.99
2022-10-17T05:32:13.863Z,65.04
2022-10-17T05:33:13.858Z,60.13
2022-10-17T05:34:14.108Z,60.36
2022-10-17T05:35:13.814Z,66.75
2022-10-17T05:36:13.809Z,60.78
2022-10-17T05:37:13.800Z,60.08
2022-10-17T05:38:13.816Z,60.93
2022-10-17T05:39:13.809Z,62.20
2022-10-17T05:40:13.756Z,60.62
2022-10-17T05:41:13.774Z,60.81
2022-10-17T05:42:13.757Z,59.28
2022-10-17T05:43:13.733Z,61.07
2022-10-17T05:44:13.745Z,60.74
2022-10-17T05:45:13.722Z,59.38
2022-10-17T05:46:13.715Z,60.25
2022-10-17T05:47:13.698Z,60.54
2022-10-17T05:48:13.691Z,60.55
2022-10-17T05:49:19.785Z,59.37
2022-10-17T05:50:15.679Z,60.28
2022-10-17T05:51:13.660Z,60.82
2022-10-17T05:52:13.648Z,61.60
2022-10-17T05:53:13.643Z,63.84
2022-10-17T05:54:13.677Z,61.08
2022-10-17T05:55:13.615Z,60.74
2022-10-17T05:56:13.636Z,60.43
2022-10-17T05:57:13.604Z,60.98
2022-10-17T05:58:21.800Z,60.51
2022-10-17T05:59:14.588Z,67.21
2022-10-17T06:00:13.589Z,61.47
2022-10-17T06:01:13.593Z,60.17
2022-10-17T06:02:13.653Z,59.91
2022-10-17T06:03:14.542Z,60.08
2022-10-17T06:04:14.528Z,59.75
2022-10-17T06:05:13.530Z,60.23
2022-10-17T06:06:13.535Z,59.97
2022-10-17T06:07:13.520Z,60.12
2022-10-17T06:08:13.493Z,60.03
2022-10-17T06:09:13.551Z,61.09
2022-10-17T06:10:13.468Z,60.33
2022-10-17T06:11:13.531Z,60.86
2022-10-17T06:12:13.459Z,60.73
2022-10-17T06:13:13.440Z,59.05
2022-10-17T06:14:13.430Z,60.56
2022-10-17T06:15:13.421Z,59.54
2022-10-17T06:16:13.417Z,58.88
2022-10-17T06:17:15.963Z,59.49
2022-10-17T06:18:14.408Z,59.51
2022-10-17T06:19:13.386Z,59.13
2022-10-17T06:20:13.376Z,61.41
2022-10-17T06:21:13.364Z,58.30
2022-10-17T06:22:13.374Z,59.91
2022-10-17T06:23:13.339Z,60.92
2022-10-17T06:24:13.344Z,59.19
2022-10-17T06:25:13.377Z,60.01
2022-10-17T06:26:13.399Z,59.59
2022-10-17T06:27:13.298Z,60.62
2022-10-17T06:28:13.297Z,58.13
2022-10-17T06:29:13.279Z,58.86
2022-10-17T06:30:13.333Z,58.12
2022-10-17T06:31:13.270Z,58.87
2022-10-17T06:32:15.066Z,59.72
2022-10-17T06:33:13.247Z,59.60
2022-10-17T06:34:13.230Z,59.28
2022-10-17T06:35:13.259Z,59.57
2022-10-17T06:36:13.319Z,58.56
2022-10-17T06:37:13.214Z,59.08
2022-10-17T06:38:13.198Z,59.78
2022-10-17T06:39:13.213Z,59.27
2022-10-17T06:40:13.175Z,58.69
2022-10-17T06:41:13.179Z,58.51
2022-10-17T06:42:13.163Z,60.33
2022-10-17T06:43:13.186Z,61.61
2022-10-17T06:44:13.139Z,62.08
2022-10-17T06:45:13.130Z,60.03
2022-10-17T06:46:13.121Z,60.47
2022-10-17T06:47:14.334Z,59.94
2022-10-17T06:48:13.131Z,59.36
2022-10-17T06:49:13.082Z,58.28
2022-10-17T06:50:13.082Z,59.61
2022-10-17T06:51:13.072Z,60.58
2022-10-17T06:52:13.064Z,59.94
2022-10-17T06:53:13.047Z,60.53
2022-10-17T06:54:13.059Z,59.91
2022-10-17T06:55:14.140Z,58.96
2022-10-17T06:56:13.032Z,57.61
2022-10-17T06:57:12.999Z,59.98
2022-10-17T06:58:12.996Z,60.18
2022-10-17T06:59:13.001Z,59.70
2022-10-17T07:00:12.969Z,60.13
2022-10-17T07:01:12.973Z,60.96
2022-10-17T07:02:12.950Z,59.25
2022-10-17T07:03:12.946Z,58.99
2022-10-17T07:04:12.982Z,60.15
2022-10-17T07:05:12.925Z,56.53
2022-10-17T07:06:12.909Z,58.60
2022-10-17T07:07:12.899Z,59.49
2022-10-17T07:08:12.883Z,60.00
2022-10-17T07:09:12.868Z,55.69
2022-10-17T07:10:12.889Z,65.26
2022-10-17T07:11:12.863Z,59.63
2022-10-17T07:12:12.882Z,59.04
2022-10-17T07:13:12.837Z,58.54
2022-10-17T07:14:12.823Z,56.52
2022-10-17T07:15:12.806Z,56.25
2022-10-17T07:16:12.813Z,56.73
2022-10-17T07:17:12.803Z,56.82
2022-10-17T07:18:12.793Z,57.51
2022-10-17T07:19:12.774Z,57.17
2022-10-17T07:20:12.795Z,60.00
2022-10-17T07:21:12.765Z,56.43
2022-10-17T07:22:12.747Z,55.00
2022-10-17T07:23:12.738Z,56.38
2022-10-17T07:24:12.719Z,57.91
2022-10-17T07:25:13.745Z,57.45
2022-10-17T07:26:12.729Z,56.08
2022-10-17T07:27:12.699Z,56.35
2022-10-17T07:28:12.680Z,55.68
2022-10-17T07:29:12.674Z,55.96
2022-10-17T07:30:12.676Z,58.06
2022-10-17T07:31:12.658Z,57.03
2022-10-17T07:32:12.647Z,58.10
2022-10-17T07:33:12.631Z,60.39
2022-10-17T07:34:12.622Z,58.99
2022-10-17T07:35:12.610Z,55.59
2022-10-17T07:36:12.621Z,53.49
2022-10-17T07:37:12.606Z,56.10
2022-10-17T07:38:12.619Z,61.87
2022-10-17T07:39:12.573Z,56.90
2022-10-17T07:40:12.619Z,56.54
2022-10-17T07:41:13.724Z,56.11
2022-10-17T07:42:12.544Z,57.25
2022-10-17T07:43:12.558Z,58.87
2022-10-17T07:44:12.513Z,59.86
2022-10-17T07:45:12.513Z,56.65
2022-10-17T07:46:12.513Z,57.31
2022-10-17T07:47:12.488Z,56.02
2022-10-17T07:48:12.500Z,57.39
2022-10-17T07:49:12.460Z,57.98
2022-10-17T07:50:13.533Z,55.67
2022-10-17T07:51:12.457Z,56.09
2022-10-17T07:52:12.457Z,57.42
2022-10-17T07:53:12.428Z,56.20
2022-10-17T07:54:12.404Z,58.40
2022-10-17T07:55:12.407Z,58.37
2022-10-17T07:56:12.398Z,55.99
2022-10-17T07:57:12.412Z,55.35
2022-10-17T07:58:12.376Z,57.62
2022-10-17T07:59:12.378Z,57.51
2022-10-17T08:00:12.352Z,58.08
2022-10-17T08:01:14.961Z,56.47
2022-10-17T08:02:12.353Z,58.25
2022-10-17T08:03:12.337Z,57.27
2022-10-17T08:04:12.336Z,55.57
2022-10-17T08:05:12.305Z,55.44
2022-10-17T08:06:12.316Z,58.85
2022-10-17T08:07:20.946Z,56.04
2022-10-17T08:08:13.300Z,54.20
2022-10-17T08:09:12.259Z,56.62
2022-10-17T08:10:13.258Z,54.55
2022-10-17T08:11:12.271Z,55.38
2022-10-17T08:12:12.244Z,55.36
2022-10-17T08:13:12.230Z,54.87
2022-10-17T08:14:12.209Z,55.05
2022-10-17T08:15:12.203Z,57.34
2022-10-17T08:16:12.222Z,54.37
2022-10-17T08:17:12.203Z,55.71
2022-10-17T08:18:12.187Z,55.58
2022-10-17T08:19:12.190Z,55.40
2022-10-17T08:20:12.166Z,58.04
2022-10-17T08:21:12.182Z,54.75
2022-10-17T08:22:12.146Z,56.21
2022-10-17T08:23:12.152Z,56.29
2022-10-17T08:24:12.129Z,58.44
2022-10-17T08:25:12.115Z,58.50
2022-10-17T08:26:12.113Z,56.51
2022-10-17T08:27:12.120Z,57.03
2022-10-17T08:28:12.116Z,57.77
2022-10-17T08:29:12.153Z,58.65
2022-10-17T08:30:12.066Z,58.49
2022-10-17T08:31:12.047Z,56.12
2022-10-17T08:32:12.051Z,56.81
2022-10-17T08:33:12.038Z,65.96
2022-10-17T08:34:12.036Z,56.63
2022-10-17T08:35:12.019Z,56.18
2022-10-17T08:36:12.046Z,55.71
2022-10-17T08:37:11.997Z,56.94
2022-10-17T08:38:13.356Z,57.56
2022-10-17T08:39:11.985Z,55.65
2022-10-17T08:40:11.964Z,54.78
2022-10-17T08:41:11.971Z,59.53
2022-10-17T08:42:11.941Z,60.13
2022-10-17T08:43:43.843Z,59.30
2022-10-17T08:44:11.929Z,56.62
2022-10-17T08:45:11.930Z,56.49
2022-10-17T08:46:11.965Z,57.90
2022-10-17T08:47:11.890Z,58.49
2022-10-17T08:48:11.879Z,58.95
2022-10-17T08:49:12.210Z,55.98
2022-10-17T08:50:11.898Z,56.47
2022-10-17T08:51:11.881Z,58.39
2022-10-17T08:52:11.848Z,56.23
2022-10-17T08:53:11.845Z,56.13
2022-10-17T08:54:11.833Z,58.24
2022-10-17T08:55:11.878Z,56.21
2022-10-17T08:56:19.493Z,59.06
2022-10-17T08:57:13.797Z,59.82
2022-10-17T08:58:11.792Z,57.69
2022-10-17T08:59:11.782Z,57.38
2022-10-17T09:00:11.798Z,57.58
2022-10-17T09:01:13.187Z,57.94
2022-10-17T09:02:12.750Z,59.39
2022-10-17T09:03:11.797Z,60.28
2022-10-17T09:04:11.774Z,58.39
2022-10-17T09:05:11.742Z,58.47
2022-10-17T09:06:11.719Z,57.10
2022-10-17T09:07:11.724Z,57.53
2022-10-17T09:08:11.692Z,57.83
2022-10-17T09:09:11.690Z,57.82
2022-10-17T09:10:11.685Z,59.68
2022-10-17T09:11:11.665Z,58.76
2022-10-17T09:12:11.680Z,56.80
2022-10-17T09:13:11.652Z,57.90
2022-10-17T09:14:11.632Z,59.06
2022-10-17T09:15:11.628Z,58.81
2022-10-17T09:16:11.626Z,58.79
2022-10-17T09:17:11.643Z,58.30
2022-10-17T09:18:11.586Z,57.20
2022-10-17T09:19:11.588Z,60.16
2022-10-17T09:20:11.572Z,60.76
2022-10-17T09:21:11.558Z,58.37
2022-10-17T09:22:11.573Z,57.32
2022-10-17T09:23:11.567Z,57.94
2022-10-17T09:24:15.919Z,58.39
2022-10-17T09:25:12.554Z,58.31
2022-10-17T09:26:11.514Z,57.74
2022-10-17T09:27:11.508Z,57.17
2022-10-17T09:28:11.498Z,57.08
2022-10-17T09:29:11.481Z,56.60
2022-10-17T09:30:21.352Z,57.74
2022-10-17T09:31:11.475Z,58.01
2022-10-17T09:32:11.498Z,57.72
2022-10-17T09:33:23.076Z,57.87
2022-10-17T09:34:13.439Z,57.68
2022-10-17T09:35:11.450Z,57.55
2022-10-17T09:36:11.452Z,57.24
2022-10-17T09:37:11.433Z,57.71
2022-10-17T09:38:11.390Z,59.20
2022-10-17T09:39:11.417Z,56.76
2022-10-17T09:40:11.377Z,57.27
2022-10-17T09:41:32.128Z,57.49
2022-10-17T09:42:12.361Z,54.90
2022-10-17T09:43:11.349Z,55.35
2022-10-17T09:44:11.362Z,55.24
2022-10-17T09:45:11.327Z,58.42
2022-10-17T09:46:11.320Z,57.74
2022-10-17T09:47:11.309Z,56.04
2022-10-17T09:48:11.322Z,58.30
2022-10-17T09:49:13.497Z,59.48
2022-10-17T09:50:12.288Z,57.88
2022-10-17T09:51:21.706Z,59.40
2022-10-17T09:52:13.277Z,59.73
2022-10-17T09:53:11.252Z,57.23
2022-10-17T09:54:11.244Z,58.22
2022-10-17T09:55:11.241Z,58.14
2022-10-17T09:56:11.251Z,58.65
2022-10-17T09:57:11.209Z,57.83
2022-10-17T09:58:11.200Z,61.15
2022-10-17T09:59:13.742Z,59.04
2022-10-17T10:00:12.207Z,57.55
2022-10-17T10:01:11.282Z,57.58
2022-10-17T10:02:11.159Z,58.16
2022-10-17T10:03:11.175Z,56.66
2022-10-17T10:04:11.152Z,60.18
2022-10-17T10:05:11.132Z,56.04
2022-10-17T10:06:11.123Z,55.17
2022-10-17T10:07:11.122Z,57.95
2022-10-17T10:08:11.126Z,56.73
2022-10-17T10:09:11.141Z,56.88
2022-10-17T10:10:11.070Z,57.17
2022-10-17T10:11:13.782Z,56.55
2022-10-17T10:12:12.054Z,55.46
2022-10-17T10:13:11.053Z,56.88
2022-10-17T10:14:11.035Z,58.73
2022-10-17T10:15:11.031Z,61.14
2022-10-17T10:16:11.011Z,54.82
2022-10-17T10:17:11.040Z,56.33
2022-10-17T10:18:10.992Z,57.33
2022-10-17T10:19:10.980Z,56.31
2022-10-17T10:20:10.980Z,57.35
2022-10-17T10:21:10.992Z,57.15
2022-10-17T10:22:10.973Z,58.35
2022-10-17T10:23:10.950Z,58.34
2022-10-17T10:24:10.955Z,55.21
2022-10-17T10:25:10.919Z,56.16
2022-10-17T10:26:12.442Z,54.69
2022-10-17T10:27:11.919Z,55.71
2022-10-17T10:28:10.920Z,56.18
2022-10-17T10:29:11.030Z,53.25
2022-10-17T10:30:10.875Z,53.35
2022-10-17T10:31:10.868Z,52.70
2022-10-17T10:32:10.851Z,52.11
2022-10-17T10:33:10.858Z,54.07
2022-10-17T10:34:10.835Z,52.67
2022-10-17T10:35:10.859Z,54.65
2022-10-17T10:36:10.823Z,53.26
2022-10-17T10:37:13.458Z,55.37
2022-10-17T10:38:10.803Z,55.45
2022-10-17T10:39:10.780Z,55.48
2022-10-17T10:40:10.801Z,51.41
2022-10-17T10:41:10.771Z,52.32
2022-10-17T10:42:10.782Z,55.44
2022-10-17T10:43:10.761Z,51.61
2022-10-17T10:44:10.744Z,53.28
2022-10-17T10:45:19.106Z,52.97
2022-10-17T10:46:12.740Z,58.15
2022-10-17T10:47:10.702Z,54.75
2022-10-17T10:48:10.691Z,53.66
2022-10-17T10:49:10.693Z,53.58
2022-10-17T10:50:10.739Z,53.58
2022-10-17T10:51:10.671Z,53.78
2022-10-17T10:52:10.651Z,54.47
2022-10-17T10:53:10.659Z,60.09
2022-10-17T10:54:10.654Z,52.55
2022-10-17T10:55:10.650Z,56.61
2022-10-17T10:56:10.623Z,56.44
2022-10-17T10:57:10.624Z,54.96
2022-10-17T10:58:10.607Z,54.19
2022-10-17T10:59:10.600Z,60.25
2022-10-17T11:00:10.618Z,54.89
2022-10-17T11:01:10.628Z,52.80
2022-10-17T11:02:10.564Z,54.97
2022-10-17T11:03:12.602Z,55.26
2022-10-17T11:04:11.531Z,55.30
2022-10-17T11:05:10.535Z,55.23
2022-10-17T11:06:10.551Z,56.28
2022-10-17T11:07:10.518Z,55.83
2022-10-17T11:08:10.525Z,52.20
2022-10-17T11:09:10.507Z,56.35
2022-10-17T11:10:10.470Z,56.08
2022-10-17T11:11:10.470Z,53.74
2022-10-17T11:12:10.481Z,53.38
2022-10-17T11:13:10.450Z,56.22
2022-10-17T11:14:13.002Z,53.26
2022-10-17T11:15:10.445Z,52.66
2022-10-17T11:16:10.454Z,54.10
2022-10-17T11:17:10.408Z,52.56
2022-10-17T11:18:10.418Z,53.12
2022-10-17T11:19:10.405Z,53.87
2022-10-17T11:20:11.367Z,52.28
2022-10-17T11:21:10.374Z,53.44
2022-10-17T11:22:10.370Z,54.91
2022-10-17T11:23:10.363Z,54.48
2022-10-17T11:24:10.345Z,52.84
2022-10-17T11:25:10.325Z,54.48
2022-10-17T11:26:10.329Z,54.36
2022-10-17T11:27:10.317Z,54.12
2022-10-17T11:28:10.321Z,55.35
2022-10-17T11:29:10.372Z,59.19
2022-10-17T11:30:10.290Z,55.11
2022-10-17T11:31:10.273Z,53.23
2022-10-17T11:32:10.260Z,53.68
2022-10-17T11:33:10.269Z,54.31
2022-10-17T11:34:10.241Z,54.36
2022-10-17T11:35:10.242Z,54.44
2022-10-17T11:36:10.241Z,53.32
2022-10-17T11:37:10.217Z,53.11
2022-10-17T11:38:10.208Z,54.15
2022-10-17T11:39:10.208Z,53.81
2022-10-17T11:40:10.192Z,53.87
2022-10-17T11:41:10.191Z,53.44
2022-10-17T11:42:10.160Z,52.81
2022-10-17T11:43:10.218Z,54.31
2022-10-17T11:44:10.140Z,54.25
2022-10-17T11:45:10.150Z,55.21
2022-10-17T11:46:10.116Z,58.71
2022-10-17T11:47:10.119Z,56.16
2022-10-17T11:48:10.139Z,58.80
2022-10-17T11:49:10.141Z,55.18
2022-10-17T11:52:11.109Z,61.06
2022-10-17T11:53:10.089Z,55.98
2022-10-17T11:54:10.055Z,56.39
2022-10-17T11:55:10.048Z,56.88
2022-10-17T11:56:10.042Z,56.04
2022-10-17T11:57:13.948Z,55.93
2022-10-17T11:58:10.042Z,56.27
2022-10-17T11:59:10.027Z,55.24
2022-10-17T12:00:09.982Z,56.84
2022-10-17T12:01:09.984Z,55.01
2022-10-17T12:02:09.972Z,54.49
2022-10-17T12:03:09.985Z,56.16
2022-10-17T12:04:09.994Z,56.48
2022-10-17T12:05:09.929Z,55.01
2022-10-17T12:06:09.926Z,60.90
2022-10-17T12:07:09.946Z,56.43
2022-10-17T12:08:09.908Z,60.32
2022-10-17T12:09:09.926Z,55.34
2022-10-17T12:10:09.906Z,56.72
2022-10-17T12:11:09.872Z,52.01
2022-10-17T12:12:09.868Z,54.60
2022-10-17T12:13:09.874Z,58.36
2022-10-17T12:14:09.930Z,55.57
2022-10-17T12:15:10.261Z,56.73
2022-10-17T12:16:11.027Z,57.32
2022-10-17T12:17:09.857Z,56.20
2022-10-17T12:18:09.819Z,58.24
2022-10-17T12:19:09.808Z,55.86
2022-10-17T12:20:09.827Z,55.37
2022-10-17T12:21:09.778Z,56.32
2022-10-17T12:22:09.775Z,58.04
2022-10-17T12:23:09.775Z,57.62
2022-10-17T12:24:09.755Z,56.74
2022-10-17T12:25:09.784Z,56.55
2022-10-17T12:26:09.762Z,56.05
2022-10-17T12:27:09.737Z,57.36
2022-10-17T12:28:09.719Z,57.44
2022-10-17T12:29:09.708Z,55.58
2022-10-17T12:30:09.691Z,61.23
2022-10-17T12:31:09.715Z,53.78
2022-10-17T12:32:09.678Z,55.76
2022-10-17T12:33:09.669Z,55.79
2022-10-17T12:34:09.688Z,54.66
2022-10-17T12:35:09.642Z,55.70
2022-10-17T12:36:09.682Z,54.32
2022-10-17T12:37:09.620Z,57.07
2022-10-17T12:38:09.618Z,56.30
2022-10-17T12:39:09.617Z,59.98
2022-10-17T12:40:09.590Z,54.15
2022-10-17T12:41:11.564Z,57.16
2022-10-17T12:42:09.576Z,55.32
2022-10-17T12:43:09.569Z,55.73
2022-10-17T12:44:09.575Z,54.66
2022-10-17T12:45:09.549Z,55.85
2022-10-17T12:46:09.533Z,55.88
2022-10-17T12:47:09.566Z,55.90
2022-10-17T12:48:09.519Z,56.06
2022-10-17T12:49:09.570Z,61.49
2022-10-17T12:50:09.520Z,55.84
2022-10-17T12:51:34.087Z,53.71
2022-10-17T12:52:11.549Z,54.37
2022-10-17T12:53:09.469Z,54.07
2022-10-17T12:54:09.455Z,55.53
2022-10-17T12:55:13.795Z,55.46